Time;durP1;ratioP1;P1;durP2;ratioP2;P2;SDS_P1;SDS_P2;PMS_P1;PMS_P2;Temp;Humidity;BMP_temperature;BMP_pressure;BME280_temperature;BME280_humidity;BME280_pressure;Samples;Min_cycle;Max_cycle;Signal;HPM_P1;HPM_P2
2022/03/19 00:00:42;;;;;;;36.63;11.15;;;;;;;;;;5029099;28;20172;-78
2022/03/19 00:03:08;;;;;;;29.92;9.93;;;;;;;;;;5025438;28;20056;-76
2022/03/19 00:05:34;;;;;;;37.88;11.63;;;;;;;;;;5029185;28;20026;-76
2022/03/19 00:08:01;;;;;;;44.28;11.43;;;;;;;;;;5029048;28;20040;-77
2022/03/19 00:10:27;;;;;;;43.05;11.50;;;;;;;;;;5026869;28;20036;-78
2022/03/19 00:12:54;;;;;;;21.67;10.02;;;;;;;;;;5028437;28;20104;-78
2022/03/19 00:15:20;;;;;;;38.80;11.30;;;;;;;;;;5028829;28;20100;-78
2022/03/19 00:17:47;;;;;;;34.13;10.25;;;;;;;;;;5028210;28;20036;-77
2022/03/19 00:20:14;;;;;;;40.03;11.70;;;;;;;;;;5027178;28;20036;-76
2022/03/19 00:22:40;;;;;;;35.25;10.55;;;;;;;;;;4989891;28;1110293;-76
2022/03/19 00:25:08;;;;;;;36.50;11.95;;;;;;;;;;5030794;28;20026;-77
2022/03/19 00:27:35;;;;;;;28.27;10.38;;;;;;;;;;5029426;28;20030;-77
2022/03/19 00:30:01;;;;;;;32.95;11.00;;;;;;;;;;5022990;28;20022;-76
2022/03/19 00:32:27;;;;;;;39.33;10.60;;;;;;;;;;5028875;28;20496;-76
2022/03/19 00:34:53;;;;;;;28.75;11.48;;;;;;;;;;5029366;28;20029;-77
2022/03/19 00:37:19;;;;;;;40.90;10.50;;;;;;;;;;5030348;28;20447;-75
2022/03/19 00:39:45;;;;;;;30.08;10.25;;;;;;;;;;5029793;28;20021;-77
2022/03/19 00:42:11;;;;;;;33.15;10.10;;;;;;;;;;5031310;28;20079;-78
2022/03/19 00:44:37;;;;;;;26.15;8.77;;;;;;;;;;5030723;28;20029;-77
2022/03/19 00:47:04;;;;;;;34.67;9.30;;;;;;;;;;5030326;28;20099;-78
2022/03/19 00:49:30;;;;;;;36.20;9.60;;;;;;;;;;5030573;28;20060;-79
2022/03/19 00:51:56;;;;;;;27.73;8.77;;;;;;;;;;5029299;28;20132;-77
2022/03/19 00:54:22;;;;;;;26.98;8.30;;;;;;;;;;5027867;28;20022;-78
2022/03/19 00:56:48;;;;;;;34.28;8.07;;;;;;;;;;5031906;28;20063;-78
2022/03/19 00:59:14;;;;;;;36.75;9.23;;;;;;;;;;5027762;28;20060;-77
2022/03/19 01:01:40;;;;;;;36.83;9.00;;;;;;;;;;5030032;28;20025;-78
2022/03/19 01:04:06;;;;;;;32.70;9.23;;;;;;;;;;5029336;28;20033;-78
2022/03/19 01:06:32;;;;;;;32.10;8.25;;;;;;;;;;5032063;28;20045;-78
2022/03/19 01:08:58;;;;;;;27.75;8.25;;;;;;;;;;5027215;28;20082;-77
2022/03/19 01:11:24;;;;;;;36.20;9.68;;;;;;;;;;5029982;28;20033;-77
2022/03/19 01:13:51;;;;;;;29.08;8.68;;;;;;;;;;5028893;28;20038;-76
2022/03/19 01:16:20;;;;;;;28.35;6.80;;;;;;;;;;5030373;28;20025;-77
2022/03/19 01:18:47;;;;;;;28.30;7.60;;;;;;;;;;5029322;28;20068;-76
2022/03/19 01:21:14;;;;;;;31.05;8.35;;;;;;;;;;5028336;28;20230;-76
2022/03/19 01:23:40;;;;;;;29.25;6.95;;;;;;;;;;5029582;28;20118;-74
2022/03/19 01:26:06;;;;;;;37.22;8.95;;;;;;;;;;5028184;28;20087;-77
2022/03/19 01:28:32;;;;;;;29.98;7.93;;;;;;;;;;5029185;28;20127;-76
2022/03/19 01:30:58;;;;;;;23.48;6.95;;;;;;;;;;5028849;28;20554;-76
2022/03/19 01:33:24;;;;;;;28.42;7.72;;;;;;;;;;5012072;28;20029;-78
2022/03/19 01:35:50;;;;;;;24.02;7.25;;;;;;;;;;5030745;28;20033;-76
2022/03/19 01:38:16;;;;;;;37.33;7.35;;;;;;;;;;5030568;28;20361;-78
2022/03/19 01:40:42;;;;;;;26.27;6.97;;;;;;;;;;5028150;28;20128;-77
2022/03/19 01:43:08;;;;;;;34.70;7.32;;;;;;;;;;5028470;28;20087;-77
2022/03/19 01:45:35;;;;;;;29.08;7.32;;;;;;;;;;5029846;28;20084;-77
2022/03/19 01:48:01;;;;;;;27.67;7.00;;;;;;;;;;5029553;28;20034;-78
2022/03/19 01:50:27;;;;;;;25.92;7.85;;;;;;;;;;5030204;28;20053;-78
2022/03/19 01:52:54;;;;;;;25.25;6.93;;;;;;;;;;5030427;28;20175;-77
2022/03/19 01:55:21;;;;;;;26.73;6.55;;;;;;;;;;5029693;28;20112;-77
2022/03/19 01:57:49;;;;;;;26.83;7.43;;;;;;;;;;5025328;28;20072;-77
2022/03/19 02:00:17;;;;;;;25.77;7.50;;;;;;;;;;5029037;28;20029;-78
2022/03/19 02:02:44;;;;;;;31.33;7.63;;;;;;;;;;5029446;28;20025;-77
2022/03/19 02:05:14;;;;;;;23.67;7.43;;;;;;;;;;5028284;28;20021;-77
2022/03/19 02:07:40;;;;;;;24.67;7.18;;;;;;;;;;5027754;28;20606;-77
2022/03/19 02:10:07;;;;;;;30.45;8.48;;;;;;;;;;5027552;28;20044;-78
2022/03/19 02:12:33;;;;;;;26.25;7.03;;;;;;;;;;5026694;28;20191;-77
2022/03/19 02:14:59;;;;;;;28.50;7.88;;;;;;;;;;5026022;28;20510;-75
2022/03/19 02:17:26;;;;;;;22.15;8.23;;;;;;;;;;5028808;28;20017;-76
2022/03/19 02:19:53;;;;;;;33.95;7.60;;;;;;;;;;5025772;28;20037;-77
2022/03/19 02:22:20;;;;;;;19.27;7.78;;;;;;;;;;5027729;28;20046;-77
2022/03/19 02:27:32;;;;;;;37.20;8.88;;;;;;;;;;5022687;28;20076;-76
2022/03/19 02:29:58;;;;;;;30.50;8.75;;;;;;;;;;5025490;28;20495;-77
2022/03/19 02:32:25;;;;;;;30.08;8.45;;;;;;;;;;5026983;28;20029;-76
2022/03/19 02:34:52;;;;;;;27.92;8.70;;;;;;;;;;5026023;28;20049;-76
2022/03/19 02:37:18;;;;;;;36.33;10.30;;;;;;;;;;5027431;28;20018;-76
2022/03/19 02:39:44;;;;;;;30.90;8.60;;;;;;;;;;5025665;28;20135;-77
2022/03/19 02:42:10;;;;;;;27.92;8.30;;;;;;;;;;5026459;28;20072;-76
2022/03/19 02:44:36;;;;;;;20.73;7.85;;;;;;;;;;5026229;28;20030;-76
2022/03/19 02:47:07;;;;;;;41.60;9.43;;;;;;;;;;5027827;28;20136;-76
2022/03/19 02:49:33;;;;;;;32.65;8.65;;;;;;;;;;5027760;28;20033;-76
2022/03/19 02:51:59;;;;;;;31.77;8.38;;;;;;;;;;5027607;28;20041;-77
2022/03/19 02:54:27;;;;;;;30.98;9.45;;;;;;;;;;5027405;28;20116;-77
2022/03/19 02:56:53;;;;;;;29.65;8.90;;;;;;;;;;5025394;28;20087;-78
2022/03/19 02:59:20;;;;;;;41.97;7.57;;;;;;;;;;5025822;28;20045;-75
2022/03/19 03:01:51;;;;;;;26.45;7.15;;;;;;;;;;5027171;28;20184;-76
2022/03/19 03:04:17;;;;;;;24.77;8.27;;;;;;;;;;5026005;28;20107;-75
2022/03/19 03:06:44;;;;;;;40.08;9.15;;;;;;;;;;5027287;28;20033;-77
2022/03/19 03:09:11;;;;;;;26.70;8.05;;;;;;;;;;5027065;28;20029;-76
2022/03/19 03:11:38;;;;;;;32.63;8.07;;;;;;;;;;5027096;28;20032;-76
2022/03/19 03:14:04;;;;;;;31.13;8.60;;;;;;;;;;5027613;28;20033;-75
2022/03/19 03:16:30;;;;;;;40.30;8.30;;;;;;;;;;5029785;28;20033;-77
2022/03/19 03:18:57;;;;;;;34.35;8.50;;;;;;;;;;5027924;28;20042;-76
2022/03/19 03:21:24;;;;;;;28.95;7.70;;;;;;;;;;5028668;28;20116;-76
2022/03/19 03:23:50;;;;;;;34.30;9.15;;;;;;;;;;5026515;28;20258;-76
2022/03/19 03:26:16;;;;;;;30.83;9.00;;;;;;;;;;5028063;28;20033;-77
2022/03/19 03:28:42;;;;;;;34.75;8.60;;;;;;;;;;5028585;28;20056;-77
2022/03/19 03:31:08;;;;;;;33.13;8.32;;;;;;;;;;5029174;28;20029;-78
2022/03/19 03:33:34;;;;;;;23.55;7.85;;;;;;;;;;5028583;28;20037;-77
2022/03/19 03:36:01;;;;;;;25.17;8.52;;;;;;;;;;5029854;28;20037;-77
2022/03/19 03:38:27;;;;;;;28.02;8.43;;;;;;;;;;5030723;28;20045;-76
2022/03/19 03:40:53;;;;;;;31.75;8.75;;;;;;;;;;5030348;28;20068;-77
2022/03/19 03:43:19;;;;;;;34.67;9.43;;;;;;;;;;5031096;28;20067;-76
2022/03/19 03:45:47;;;;;;;30.48;8.45;;;;;;;;;;5030399;28;20021;-77
2022/03/19 03:48:13;;;;;;;30.08;9.43;;;;;;;;;;5028393;28;20026;-76
2022/03/19 03:50:40;;;;;;;37.65;9.07;;;;;;;;;;5029561;28;20486;-77
2022/03/19 03:53:06;;;;;;;30.20;10.55;;;;;;;;;;5031696;28;20483;-76
2022/03/19 03:55:33;;;;;;;39.22;10.05;;;;;;;;;;5031081;28;20025;-76
2022/03/19 03:58:03;;;;;;;39.00;9.63;;;;;;;;;;5030512;28;20045;-76
2022/03/19 04:00:30;;;;;;;28.20;9.82;;;;;;;;;;5028180;28;20037;-76
2022/03/19 04:02:56;;;;;;;34.83;10.20;;;;;;;;;;5031359;28;20028;-77
2022/03/19 04:05:22;;;;;;;41.78;10.95;;;;;;;;;;5028456;28;20048;-76
2022/03/19 04:07:48;;;;;;;32.80;9.68;;;;;;;;;;5029497;28;20109;-76
2022/03/19 04:10:15;;;;;;;34.42;10.90;;;;;;;;;;5029594;28;20038;-76
2022/03/19 04:12:41;;;;;;;32.60;11.15;;;;;;;;;;5028947;28;20029;-77
2022/03/19 04:15:07;;;;;;;41.63;12.73;;;;;;;;;;5028178;28;20036;-76
2022/03/19 04:17:34;;;;;;;31.75;10.35;;;;;;;;;;5029200;28;20120;-76
2022/03/19 04:20:00;;;;;;;48.67;13.65;;;;;;;;;;5029096;28;20040;-75
2022/03/19 04:22:35;;;;;;;42.53;12.02;;;;;;;;;;5029294;28;20487;-78
2022/03/19 04:25:01;;;;;;;45.35;12.68;;;;;;;;;;5027086;28;20536;-76
2022/03/19 04:27:27;;;;;;;38.75;11.90;;;;;;;;;;5029863;28;20112;-77
2022/03/19 04:29:53;;;;;;;38.88;11.80;;;;;;;;;;5027867;28;20605;-76
2022/03/19 04:32:19;;;;;;;26.65;10.88;;;;;;;;;;5029493;28;20033;-76
2022/03/19 04:34:45;;;;;;;34.30;11.57;;;;;;;;;;5029461;28;20056;-77
2022/03/19 04:37:11;;;;;;;40.83;12.57;;;;;;;;;;5030376;28;20103;-77
2022/03/19 04:39:37;;;;;;;36.35;12.73;;;;;;;;;;5029864;28;20052;-76
2022/03/19 04:42:04;;;;;;;38.45;12.82;;;;;;;;;;5029026;28;20034;-76
2022/03/19 04:44:30;;;;;;;39.83;13.40;;;;;;;;;;5026485;28;20030;-77
2022/03/19 04:46:56;;;;;;;38.90;12.90;;;;;;;;;;5029645;28;20021;-76
2022/03/19 04:49:23;;;;;;;47.85;14.05;;;;;;;;;;5028759;28;20041;-78
2022/03/19 04:51:50;;;;;;;48.13;15.80;;;;;;;;;;5029020;28;20116;-77
2022/03/19 04:54:17;;;;;;;55.58;14.23;;;;;;;;;;5025721;28;20128;-77
2022/03/19 04:56:43;;;;;;;43.00;14.98;;;;;;;;;;5029392;28;20025;-76
2022/03/19 04:59:13;;;;;;;44.83;15.98;;;;;;;;;;5011333;28;20038;-77
2022/03/19 05:01:40;;;;;;;51.42;15.20;;;;;;;;;;5029267;28;20026;-77
2022/03/19 05:04:06;;;;;;;54.78;15.35;;;;;;;;;;5029559;28;20018;-76
2022/03/19 05:06:33;;;;;;;40.75;15.40;;;;;;;;;;5029244;28;20324;-76
2022/03/19 05:11:43;;;;;;;52.58;15.55;;;;;;;;;;5029079;28;20088;-76
2022/03/19 05:14:10;;;;;;;46.05;17.10;;;;;;;;;;5029066;28;20041;-76
2022/03/19 05:16:37;;;;;;;48.03;16.02;;;;;;;;;;5029290;28;20174;-76
2022/03/19 05:19:03;;;;;;;51.05;17.33;;;;;;;;;;5028836;28;20110;-77
2022/03/19 05:21:29;;;;;;;48.00;17.10;;;;;;;;;;5029031;28;20148;-77
2022/03/19 05:23:55;;;;;;;51.10;17.60;;;;;;;;;;5028720;28;20129;-76
2022/03/19 05:26:22;;;;;;;51.95;17.08;;;;;;;;;;5028520;28;20083;-77
2022/03/19 05:28:48;;;;;;;61.78;19.60;;;;;;;;;;5029974;28;20062;-76
2022/03/19 05:31:14;;;;;;;50.20;17.95;;;;;;;;;;5029421;28;20041;-77
2022/03/19 05:36:27;;;;;;;51.58;18.35;;;;;;;;;;5030566;28;20044;-77
2022/03/19 05:38:53;;;;;;;49.78;19.38;;;;;;;;;;5028956;28;20021;-76
2022/03/19 05:41:19;;;;;;;55.47;20.35;;;;;;;;;;5027815;28;20033;-77
2022/03/19 05:43:46;;;;;;;52.65;20.20;;;;;;;;;;5026578;28;20029;-76
2022/03/19 05:46:12;;;;;;;55.20;18.98;;;;;;;;;;5029135;28;20010;-74
2022/03/19 05:48:38;;;;;;;53.35;19.08;;;;;;;;;;5028981;28;20059;-74
2022/03/19 05:51:05;;;;;;;54.83;18.10;;;;;;;;;;5026244;28;20033;-77
2022/03/19 05:53:31;;;;;;;56.05;18.75;;;;;;;;;;5027045;28;20040;-77
2022/03/19 05:55:57;;;;;;;59.75;18.73;;;;;;;;;;5027768;28;20033;-76
2022/03/19 05:58:23;;;;;;;58.85;19.73;;;;;;;;;;5027236;28;20340;-74
2022/03/19 06:00:49;;;;;;;59.72;19.65;;;;;;;;;;5025922;28;21514;-76
2022/03/19 06:03:15;;;;;;;57.15;21.52;;;;;;;;;;5027891;28;20103;-76
2022/03/19 06:05:41;;;;;;;54.75;20.63;;;;;;;;;;5026287;28;20487;-74
2022/03/19 06:08:07;;;;;;;62.13;22.10;;;;;;;;;;5027398;28;20030;-76
2022/03/19 06:10:35;;;;;;;61.50;22.95;;;;;;;;;;5026695;28;20092;-76
2022/03/19 06:13:02;;;;;;;60.65;22.70;;;;;;;;;;5025171;28;20029;-77
2022/03/19 06:15:28;;;;;;;62.55;24.05;;;;;;;;;;5025573;28;20545;-77
2022/03/19 06:17:54;;;;;;;74.43;24.98;;;;;;;;;;5026270;28;20483;-77
2022/03/19 06:20:22;;;;;;;63.72;24.52;;;;;;;;;;5027278;28;20068;-77
2022/03/19 06:22:49;;;;;;;57.75;24.00;;;;;;;;;;5027769;28;20121;-77
2022/03/19 06:25:15;;;;;;;63.65;25.75;;;;;;;;;;5027887;28;20047;-77
2022/03/19 06:27:41;;;;;;;58.33;23.92;;;;;;;;;;5027679;28;20117;-76
2022/03/19 06:30:08;;;;;;;51.10;23.20;;;;;;;;;;5027368;28;20487;-77
2022/03/19 06:32:36;;;;;;;49.78;20.95;;;;;;;;;;5025952;28;20029;-74
2022/03/19 06:35:03;;;;;;;51.47;20.35;;;;;;;;;;5027429;28;20136;-75
2022/03/19 06:37:29;;;;;;;49.92;20.42;;;;;;;;;;5022290;28;20491;-75
2022/03/19 06:39:57;;;;;;;34.15;15.75;;;;;;;;;;5025127;28;20033;-74
2022/03/19 06:42:23;;;;;;;40.20;14.70;;;;;;;;;;5027934;28;20111;-75
2022/03/19 06:44:50;;;;;;;38.83;14.38;;;;;;;;;;5026693;28;20109;-74
2022/03/19 06:47:16;;;;;;;37.17;12.90;;;;;;;;;;5025488;28;20041;-74
2022/03/19 06:49:42;;;;;;;34.20;12.55;;;;;;;;;;5009686;28;20041;-75
2022/03/19 06:52:10;;;;;;;30.88;11.05;;;;;;;;;;5025453;28;20030;-74
2022/03/19 06:54:36;;;;;;;38.83;10.48;;;;;;;;;;5025927;28;20168;-73
2022/03/19 06:57:02;;;;;;;31.02;12.43;;;;;;;;;;5027823;28;20084;-74
2022/03/19 06:59:28;;;;;;;33.45;9.20;;;;;;;;;;5027047;28;20025;-74
2022/03/19 07:01:54;;;;;;;27.27;9.98;;;;;;;;;;5027734;28;20052;-73
2022/03/19 07:04:20;;;;;;;28.08;9.15;;;;;;;;;;5027326;28;20030;-74
2022/03/19 07:06:46;;;;;;;30.05;9.13;;;;;;;;;;5027665;28;20037;-74
2022/03/19 07:09:12;;;;;;;25.00;8.82;;;;;;;;;;5030565;28;20041;-74
2022/03/19 07:11:42;;;;;;;21.73;8.80;;;;;;;;;;5029730;28;20040;-73
2022/03/19 07:14:11;;;;;;;26.02;9.55;;;;;;;;;;5014697;28;20109;-75
2022/03/19 07:16:37;;;;;;;30.70;9.85;;;;;;;;;;5028580;28;20040;-75
2022/03/19 07:19:04;;;;;;;27.75;9.82;;;;;;;;;;5030296;28;20087;-74
2022/03/19 07:21:30;;;;;;;28.75;10.00;;;;;;;;;;5031368;28;20052;-74
2022/03/19 07:23:56;;;;;;;26.17;8.63;;;;;;;;;;5030541;28;20071;-75
2022/03/19 07:26:22;;;;;;;17.27;7.55;;;;;;;;;;5031360;28;20048;-75
2022/03/19 07:28:48;;;;;;;19.77;7.55;;;;;;;;;;5029257;28;20067;-74
2022/03/19 07:31:15;;;;;;;23.45;8.10;;;;;;;;;;5031591;28;20301;-73
2022/03/19 07:33:41;;;;;;;25.10;8.77;;;;;;;;;;5030723;28;20029;-74
2022/03/19 07:36:07;;;;;;;22.42;8.07;;;;;;;;;;5029828;28;20037;-75
2022/03/19 07:38:33;;;;;;;23.67;8.25;;;;;;;;;;5031227;28;20032;-75
2022/03/19 07:43:44;;;;;;;23.13;7.18;;;;;;;;;;5030353;28;20148;-75
2022/03/19 07:46:11;;;;;;;25.17;6.95;;;;;;;;;;5031019;28;20053;-75
2022/03/19 07:48:37;;;;;;;26.50;7.43;;;;;;;;;;5032437;28;20088;-74
2022/03/19 07:51:03;;;;;;;16.85;6.97;;;;;;;;;;5032393;28;20030;-75
2022/03/19 07:53:29;;;;;;;20.00;6.53;;;;;;;;;;5030953;28;20549;-74
2022/03/19 07:55:55;;;;;;;20.83;7.57;;;;;;;;;;5030463;28;20026;-75
2022/03/19 07:58:22;;;;;;;20.50;6.50;;;;;;;;;;5031967;28;20140;-76
2022/03/19 08:00:48;;;;;;;15.98;6.35;;;;;;;;;;5031707;28;20033;-75
2022/03/19 08:03:14;;;;;;;19.23;6.47;;;;;;;;;;5031325;28;20040;-73
2022/03/19 08:05:41;;;;;;;13.77;6.28;;;;;;;;;;5031870;28;20028;-74
2022/03/19 08:08:07;;;;;;;16.85;5.57;;;;;;;;;;5031898;28;20041;-75
2022/03/19 08:10:34;;;;;;;23.17;7.45;;;;;;;;;;5031810;28;20043;-75
2022/03/19 08:13:03;;;;;;;19.58;5.68;;;;;;;;;;5031704;28;20068;-75
2022/03/19 08:15:29;;;;;;;14.57;6.13;;;;;;;;;;5030620;28;20033;-75
2022/03/19 08:17:55;;;;;;;16.58;5.53;;;;;;;;;;5029463;28;20134;-73
2022/03/19 08:20:21;;;;;;;15.88;6.13;;;;;;;;;;5031729;28;20215;-74
2022/03/19 08:22:48;;;;;;;16.88;4.82;;;;;;;;;;5032086;28;20056;-76
2022/03/19 08:25:14;;;;;;;15.70;5.10;;;;;;;;;;5031907;28;20025;-76
2022/03/19 08:27:40;;;;;;;15.52;5.95;;;;;;;;;;5031097;28;20077;-77
2022/03/19 08:30:06;;;;;;;23.63;5.25;;;;;;;;;;5033020;28;20049;-76
2022/03/19 08:32:32;;;;;;;19.80;6.60;;;;;;;;;;5011290;28;20574;-74
2022/03/19 08:34:58;;;;;;;20.30;5.50;;;;;;;;;;5018865;28;20119;-74
2022/03/19 08:37:26;;;;;;;15.85;5.18;;;;;;;;;;5031564;28;20024;-75
2022/03/19 08:42:37;;;;;;;15.23;5.85;;;;;;;;;;5031491;28;20426;-76
2022/03/19 08:45:03;;;;;;;12.60;5.13;;;;;;;;;;5030928;28;20037;-75
2022/03/19 08:47:29;;;;;;;13.82;4.78;;;;;;;;;;5031431;28;20029;-76
2022/03/19 08:49:56;;;;;;;14.18;5.10;;;;;;;;;;5032954;28;20111;-75
2022/03/19 08:52:22;;;;;;;13.73;5.63;;;;;;;;;;5031298;28;20029;-75
2022/03/19 08:54:48;;;;;;;14.50;5.05;;;;;;;;;;5030439;28;20041;-75
2022/03/19 08:57:14;;;;;;;17.42;5.03;;;;;;;;;;5029900;28;20041;-75
2022/03/19 08:59:41;;;;;;;14.70;4.70;;;;;;;;;;5031468;28;20475;-75
2022/03/19 09:02:07;;;;;;;18.23;5.80;;;;;;;;;;5031151;28;20079;-76
2022/03/19 09:04:33;;;;;;;15.35;5.05;;;;;;;;;;5031526;28;20022;-77
2022/03/19 09:06:59;;;;;;;13.02;4.93;;;;;;;;;;5030647;28;20495;-75
2022/03/19 09:09:25;;;;;;;13.35;4.85;;;;;;;;;;5029785;28;20037;-76
2022/03/19 09:11:52;;;;;;;14.80;4.95;;;;;;;;;;5031226;28;20037;-75
2022/03/19 09:14:20;;;;;;;12.63;4.10;;;;;;;;;;5029510;28;20026;-75
2022/03/19 09:16:46;;;;;;;13.02;4.45;;;;;;;;;;5030225;28;20045;-75
2022/03/19 09:19:12;;;;;;;19.33;4.85;;;;;;;;;;5031165;28;20041;-75
2022/03/19 09:21:39;;;;;;;14.63;4.47;;;;;;;;;;5029774;28;20116;-76
2022/03/19 09:24:05;;;;;;;12.95;4.63;;;;;;;;;;5030705;28;20045;-77
2022/03/19 09:26:31;;;;;;;17.60;4.30;;;;;;;;;;5030482;28;20060;-75
2022/03/19 09:28:58;;;;;;;11.48;3.95;;;;;;;;;;5030032;28;20144;-75
2022/03/19 09:31:24;;;;;;;11.15;4.22;;;;;;;;;;5031173;28;20156;-76
2022/03/19 09:33:50;;;;;;;11.75;4.80;;;;;;;;;;5031459;28;20065;-75
2022/03/19 09:36:16;;;;;;;13.88;3.78;;;;;;;;;;5028733;28;20495;-76
2022/03/19 09:38:42;;;;;;;16.35;4.35;;;;;;;;;;5031745;28;20037;-77
2022/03/19 09:41:09;;;;;;;11.95;3.20;;;;;;;;;;5029079;28;20033;-75
2022/03/19 09:43:35;;;;;;;12.32;4.00;;;;;;;;;;5031660;28;20032;-77
2022/03/19 09:46:05;;;;;;;11.43;4.03;;;;;;;;;;5032079;28;20101;-76
2022/03/19 09:48:31;;;;;;;10.82;3.50;;;;;;;;;;5028148;28;20037;-75
2022/03/19 09:50:58;;;;;;;11.70;3.35;;;;;;;;;;5030755;28;20534;-76
2022/03/19 09:53:25;;;;;;;12.88;3.85;;;;;;;;;;5012541;28;20076;-74
2022/03/19 09:55:53;;;;;;;20.52;3.40;;;;;;;;;;5029200;28;20041;-75
2022/03/19 09:58:19;;;;;;;9.75;3.00;;;;;;;;;;5030505;28;20552;-75
2022/03/19 10:00:46;;;;;;;10.60;3.20;;;;;;;;;;5031804;28;20041;-76
2022/03/19 10:03:13;;;;;;;10.63;3.47;;;;;;;;;;5030205;28;20113;-77
2022/03/19 10:08:39;;;;;;;10.05;3.15;;;;;;;;;;5012087;28;20185;-75
2022/03/19 10:11:09;;;;;;;16.95;3.15;;;;;;;;;;5011550;28;20022;-75
2022/03/19 10:13:40;;;;;;;11.93;2.67;;;;;;;;;;5012155;28;20491;-75
2022/03/19 10:16:06;;;;;;;6.03;2.33;;;;;;;;;;5029397;28;20280;-77
2022/03/19 10:18:33;;;;;;;11.52;2.50;;;;;;;;;;5029771;28;20030;-75
2022/03/19 10:21:17;;;;;;;11.60;5.20;;;;;;;;;;5029510;28;20380;-75
2022/03/19 10:23:43;;;;;;;9.85;1.85;;;;;;;;;;5029905;28;20054;-76
2022/03/19 10:26:30;;;;;;;11.77;2.92;;;;;;;;;;5030170;28;20032;-74
2022/03/19 10:29:09;;;;;;;5.25;2.00;;;;;;;;;;5030004;28;20037;-75
2022/03/19 10:31:36;;;;;;;5.43;2.25;;;;;;;;;;5029583;28;20021;-75
2022/03/19 10:34:04;;;;;;;7.22;2.28;;;;;;;;;;5029633;28;20029;-73
2022/03/19 10:36:40;;;;;;;7.28;2.10;;;;;;;;;;5028256;28;20032;-79
2022/03/19 10:39:11;;;;;;;6.97;1.92;;;;;;;;;;5029846;28;20095;-76
2022/03/19 10:41:36;;;;;;;;;;;;;;;;;;5031852;28;20049;-74
2022/03/19 10:44:29;;;;;;;10.30;2.42;;;;;;;;;;5034407;28;20359;-74
2022/03/19 10:46:56;;;;;;;7.43;2.30;;;;;;;;;;5031486;28;20033;-76
2022/03/19 10:49:26;;;;;;;9.02;3.03;;;;;;;;;;5032512;28;20037;-74
2022/03/19 10:51:54;;;;;;;8.00;2.30;;;;;;;;;;5032544;28;20514;-77
2022/03/19 10:54:20;;;;;;;10.15;2.58;;;;;;;;;;5032328;28;20099;-75
2022/03/19 10:56:47;;;;;;;15.75;2.20;;;;;;;;;;5030232;28;20033;-76
2022/03/19 10:59:14;;;;;;;4.85;2.15;;;;;;;;;;5033981;28;20099;-77
2022/03/19 11:01:41;;;;;;;6.20;2.20;;;;;;;;;;5033629;28;20518;-77
2022/03/19 11:04:08;;;;;;;7.18;2.33;;;;;;;;;;5034598;28;20029;-76
2022/03/19 11:06:41;;;;;;;5.53;2.28;;;;;;;;;;5032440;28;20022;-77
2022/03/19 11:09:11;;;;;;;8.57;2.08;;;;;;;;;;5032916;28;20391;-77
2022/03/19 11:11:44;;;;;;;8.90;2.25;;;;;;;;;;5026225;28;20064;-75
2022/03/19 11:14:11;;;;;;;7.22;1.92;;;;;;;;;;5033491;28;20036;-76
2022/03/19 11:16:37;;;;;;;7.28;1.90;;;;;;;;;;5031669;28;20044;-75
2022/03/19 11:19:07;;;;;;;9.43;2.00;;;;;;;;;;5033485;28;20207;-76
2022/03/19 11:21:33;;;;;;;7.90;1.80;;;;;;;;;;5034656;28;20052;-76
2022/03/19 11:24:06;;;;;;;7.53;1.98;;;;;;;;;;5036634;28;20050;-73
2022/03/19 11:26:33;;;;;;;9.82;2.22;;;;;;;;;;5035065;28;20025;-76
2022/03/19 11:28:59;;;;;;;10.07;2.20;;;;;;;;;;5032894;28;20060;-76
2022/03/19 11:31:26;;;;;;;9.70;3.35;;;;;;;;;;5028912;28;20029;-75
2022/03/19 11:33:56;;;;;;;8.75;2.25;;;;;;;;;;5028440;28;20072;-77
2022/03/19 11:36:22;;;;;;;6.60;2.17;;;;;;;;;;5033787;28;20030;-75
2022/03/19 11:38:52;;;;;;;9.05;2.70;;;;;;;;;;5016519;28;20133;-76
2022/03/19 11:41:23;;;;;;;8.82;2.40;;;;;;;;;;5032910;28;20261;-76
2022/03/19 11:43:50;;;;;;;11.48;2.35;;;;;;;;;;5035289;28;20040;-76
2022/03/19 11:46:17;;;;;;;19.35;2.30;;;;;;;;;;5034340;28;20147;-79
2022/03/19 11:48:44;;;;;;;5.45;1.90;;;;;;;;;;5032669;28;20029;-77
2022/03/19 11:51:33;;;;;;;8.85;2.17;;;;;;;;;;5033085;28;20041;-75
2022/03/19 11:54:09;;;;;;;11.48;2.10;;;;;;;;;;5032435;28;20033;-75
2022/03/19 11:56:41;;;;;;;7.35;1.80;;;;;;;;;;5035648;28;20021;-76
2022/03/19 11:59:16;;;;;;;8.63;2.50;;;;;;;;;;5034653;28;20026;-75
2022/03/19 12:01:47;;;;;;;17.58;2.08;;;;;;;;;;5029496;28;20116;-76
2022/03/19 12:04:13;;;;;;;7.22;1.50;;;;;;;;;;5030943;28;20470;-76
2022/03/19 12:06:49;;;;;;;9.38;2.03;;;;;;;;;;5033087;28;20021;-75
2022/03/19 12:09:15;;;;;;;7.70;1.85;;;;;;;;;;5032590;28;20022;-77
2022/03/19 12:11:41;;;;;;;6.63;1.48;;;;;;;;;;5034204;28;20116;-76
2022/03/19 12:14:10;;;;;;;7.85;2.50;;;;;;;;;;5018510;28;20092;-78
2022/03/19 12:16:41;;;;;;;16.42;3.00;;;;;;;;;;5033229;28;20025;-74
2022/03/19 12:19:08;;;;;;;16.90;2.50;;;;;;;;;;5028940;28;20032;-75
2022/03/19 12:21:35;;;;;;;5.93;1.80;;;;;;;;;;5027958;28;20032;-77
2022/03/19 12:24:11;;;;;;;8.82;2.03;;;;;;;;;;5032570;28;20069;-78
2022/03/19 12:26:39;;;;;;;10.52;2.42;;;;;;;;;;5031775;28;20479;-73
2022/03/19 12:29:06;;;;;;;8.38;1.90;;;;;;;;;;5032370;28;20112;-75
2022/03/19 12:31:33;;;;;;;6.32;2.10;;;;;;;;;;5030729;28;20037;-76
2022/03/19 12:34:00;;;;;;;10.43;2.08;;;;;;;;;;5032151;28;20440;-77
2022/03/19 12:36:26;;;;;;;6.80;2.40;;;;;;;;;;5033336;28;20025;-76
2022/03/19 12:38:52;;;;;;;7.15;2.10;;;;;;;;;;5033123;28;20029;-77
2022/03/19 12:41:32;;;;;;;5.28;1.83;;;;;;;;;;5029007;28;20029;-76
2022/03/19 12:43:59;;;;;;;5.35;1.70;;;;;;;;;;5020218;28;20033;-78
2022/03/19 12:46:30;;;;;;;8.13;1.55;;;;;;;;;;5032640;28;20120;-74
2022/03/19 12:49:02;;;;;;;4.60;1.48;;;;;;;;;;5030303;28;20029;-77
2022/03/19 12:51:29;;;;;;;7.15;1.33;;;;;;;;;;5031805;28;20043;-76
2022/03/19 12:53:55;;;;;;;3.30;1.10;;;;;;;;;;5032670;28;20041;-76
2022/03/19 12:56:22;;;;;;;7.10;1.45;;;;;;;;;;5031716;28;20131;-75
2022/03/19 12:58:49;;;;;;;7.20;1.35;;;;;;;;;;5016201;28;20061;-76
2022/03/19 13:01:16;;;;;;;6.28;1.55;;;;;;;;;;5027809;28;20050;-77
2022/03/19 13:03:42;;;;;;;11.55;2.17;;;;;;;;;;5045430;28;20122;-76
2022/03/19 13:06:09;;;;;;;5.30;1.40;;;;;;;;;;5031083;28;20172;-76
2022/03/19 13:08:48;;;;;;;12.38;2.08;;;;;;;;;;5031338;28;20103;-75
2022/03/19 13:11:14;;;;;;;12.15;1.38;;;;;;;;;;5029125;28;20045;-76
2022/03/19 13:13:41;;;;;;;4.13;1.15;;;;;;;;;;5031447;28;20791;-76
2022/03/19 13:16:07;;;;;;;5.43;1.13;;;;;;;;;;5031995;28;20030;-76
2022/03/19 13:18:35;;;;;;;5.28;1.48;;;;;;;;;;5030123;28;20048;-77
2022/03/19 13:21:02;;;;;;;4.25;1.77;;;;;;;;;;5031186;28;20115;-76
2022/03/19 13:23:29;;;;;;;6.40;1.75;;;;;;;;;;5029750;28;20463;-77
2022/03/19 13:25:55;;;;;;;6.75;1.77;;;;;;;;;;5030959;28;20502;-77
2022/03/19 13:28:21;;;;;;;8.80;2.13;;;;;;;;;;5032368;28;20033;-76
2022/03/19 13:30:49;;;;;;;5.82;1.75;;;;;;;;;;5016885;28;20041;-77
2022/03/19 13:33:16;;;;;;;7.95;1.50;;;;;;;;;;5028759;28;20060;-76
2022/03/19 13:35:47;;;;;;;7.53;1.58;;;;;;;;;;5031100;28;20044;-76
2022/03/19 13:38:14;;;;;;;6.90;1.90;;;;;;;;;;5031885;28;20039;-78
2022/03/19 13:40:40;;;;;;;6.30;1.80;;;;;;;;;;5029732;28;20321;-78
2022/03/19 13:43:07;;;;;;;7.68;1.83;;;;;;;;;;5032825;28;20037;-78
2022/03/19 13:45:33;;;;;;;4.50;1.33;;;;;;;;;;5033026;28;20013;-74
2022/03/19 13:48:06;;;;;;;6.20;1.20;;;;;;;;;;5029645;28;20107;-76
2022/03/19 13:50:35;;;;;;;6.65;1.60;;;;;;;;;;5032019;28;20036;-78
2022/03/19 13:53:01;;;;;;;13.75;1.90;;;;;;;;;;5031731;28;20124;-77
2022/03/19 13:55:27;;;;;;;6.68;1.55;;;;;;;;;;5030598;28;20029;-77
2022/03/19 13:57:57;;;;;;;8.63;2.05;;;;;;;;;;5031708;28;20033;-76
2022/03/19 14:00:27;;;;;;;9.03;2.33;;;;;;;;;;5031023;28;20128;-76
2022/03/19 14:03:03;;;;;;;9.40;3.00;;;;;;;;;;5031923;28;20351;-76
2022/03/19 14:05:35;;;;;;;9.35;1.98;;;;;;;;;;5027841;28;20060;-79
2022/03/19 14:08:04;;;;;;;12.57;2.08;;;;;;;;;;5028753;28;20437;-75
2022/03/19 14:10:32;;;;;;;9.65;2.05;;;;;;;;;;5026047;28;20025;-76
2022/03/19 14:13:02;;;;;;;5.25;1.95;;;;;;;;;;5033688;28;20059;-78
2022/03/19 14:15:35;;;;;;;5.60;1.70;;;;;;;;;;5030123;28;20479;-79
2022/03/19 14:18:01;;;;;;;10.50;1.92;;;;;;;;;;5026176;28;20134;-76
2022/03/19 14:20:28;;;;;;;7.90;1.65;;;;;;;;;;5021365;28;20030;-76
2022/03/19 14:22:54;;;;;;;5.63;1.40;;;;;;;;;;5027743;28;20042;-77
2022/03/19 14:25:20;;;;;;;5.45;1.55;;;;;;;;;;5032026;28;20095;-76
2022/03/19 14:27:47;;;;;;;9.55;1.27;;;;;;;;;;5031790;28;20026;-79
2022/03/19 14:30:14;;;;;;;6.78;1.33;;;;;;;;;;5030602;28;20053;-77
2022/03/19 14:32:40;;;;;;;9.95;1.90;;;;;;;;;;5032819;28;20083;-78
2022/03/19 14:35:07;;;;;;;13.95;1.50;;;;;;;;;;5032198;28;20040;-75
2022/03/19 14:37:33;;;;;;;5.93;1.38;;;;;;;;;;5031058;28;20030;-77
2022/03/19 14:39:59;;;;;;;4.45;1.45;;;;;;;;;;5031151;28;20040;-77
2022/03/19 14:42:25;;;;;;;6.43;1.40;;;;;;;;;;5031011;28;20075;-76
2022/03/19 14:44:53;;;;;;;5.85;1.20;;;;;;;;;;5031522;28;20113;-78
2022/03/19 14:47:20;;;;;;;5.07;1.38;;;;;;;;;;5031357;28;20635;-78